sensor_id;sensor_type;location;lat;lon;timestamp;temperature;humidity
47546;DHT22;50104;52.002;4.688;2024-02-23T00:03:29;6.20;95.00
47546;DHT22;50104;52.002;4.688;2024-02-23T00:08:30;6.20;95.00
47546;DHT22;50104;52.002;4.688;2024-02-23T00:13:31;6.30;95.00
47546;DHT22;50104;52.002;4.688;2024-02-23T00:18:31;6.20;94.80
47546;DHT22;50104;52.002;4.688;2024-02-23T00:23:32;6.30;94.70
47546;DHT22;50104;52.002;4.688;2024-02-23T00:28:33;6.30;94.60
47546;DHT22;50104;52.002;4.688;2024-02-23T00:33:34;6.30;94.10
47546;DHT22;50104;52.002;4.688;2024-02-23T00:38:35;6.30;94.00
47546;DHT22;50104;52.002;4.688;2024-02-23T00:43:40;6.30;93.90
47546;DHT22;50104;52.002;4.688;2024-02-23T00:48:41;6.30;93.30
47546;DHT22;50104;52.002;4.688;2024-02-23T00:53:42;6.30;93.20
47546;DHT22;50104;52.002;4.688;2024-02-23T00:58:43;6.20;93.30
47546;DHT22;50104;52.002;4.688;2024-02-23T01:03:44;6.20;93.50
47546;DHT22;50104;52.002;4.688;2024-02-23T01:08:45;6.20;93.80
47546;DHT22;50104;52.002;4.688;2024-02-23T01:13:45;6.20;94.10
47546;DHT22;50104;52.002;4.688;2024-02-23T01:18:46;6.20;94.30
47546;DHT22;50104;52.002;4.688;2024-02-23T01:23:47;6.20;94.50
47546;DHT22;50104;52.002;4.688;2024-02-23T01:28:48;6.20;94.50
47546;DHT22;50104;52.002;4.688;2024-02-23T01:33:49;6.20;94.40
47546;DHT22;50104;52.002;4.688;2024-02-23T01:38:51;6.20;94.20
47546;DHT22;50104;52.002;4.688;2024-02-23T01:43:51;6.20;94.00
47546;DHT22;50104;52.002;4.688;2024-02-23T01:48:53;6.20;93.90
47546;DHT22;50104;52.002;4.688;2024-02-23T01:53:54;6.20;93.60
47546;DHT22;50104;52.002;4.688;2024-02-23T01:58:55;6.20;93.50
47546;DHT22;50104;52.002;4.688;2024-02-23T02:03:57;6.10;93.30
47546;DHT22;50104;52.002;4.688;2024-02-23T02:08:58;6.10;93.40
47546;DHT22;50104;52.002;4.688;2024-02-23T02:13:59;6.10;93.50
47546;DHT22;50104;52.002;4.688;2024-02-23T02:19:00;6.10;93.40
47546;DHT22;50104;52.002;4.688;2024-02-23T02:24:01;6.10;93.60
47546;DHT22;50104;52.002;4.688;2024-02-23T02:29:02;6.10;93.70
47546;DHT22;50104;52.002;4.688;2024-02-23T02:34:04;6.10;93.90
47546;DHT22;50104;52.002;4.688;2024-02-23T02:39:05;6.10;94.10
47546;DHT22;50104;52.002;4.688;2024-02-23T02:44:07;6.00;93.90
47546;DHT22;50104;52.002;4.688;2024-02-23T02:49:10;6.10;93.90
47546;DHT22;50104;52.002;4.688;2024-02-23T02:54:10;6.00;93.90
47546;DHT22;50104;52.002;4.688;2024-02-23T02:59:12;6.00;93.90
47546;DHT22;50104;52.002;4.688;2024-02-23T03:04:13;6.00;93.80
47546;DHT22;50104;52.002;4.688;2024-02-23T03:09:14;6.00;93.60
47546;DHT22;50104;52.002;4.688;2024-02-23T03:14:15;6.00;93.60
47546;DHT22;50104;52.002;4.688;2024-02-23T03:19:18;5.90;93.60
47546;DHT22;50104;52.002;4.688;2024-02-23T03:24:22;5.90;93.60
47546;DHT22;50104;52.002;4.688;2024-02-23T03:29:23;5.90;93.60
47546;DHT22;50104;52.002;4.688;2024-02-23T03:34:25;5.80;93.70
47546;DHT22;50104;52.002;4.688;2024-02-23T03:39:25;5.80;93.60
47546;DHT22;50104;52.002;4.688;2024-02-23T03:44:26;5.80;93.80
47546;DHT22;50104;52.002;4.688;2024-02-23T03:49:27;5.70;93.70
47546;DHT22;50104;52.002;4.688;2024-02-23T03:54:28;5.70;93.70
47546;DHT22;50104;52.002;4.688;2024-02-23T03:59:28;5.60;93.70
47546;DHT22;50104;52.002;4.688;2024-02-23T04:04:29;5.60;93.80
47546;DHT22;50104;52.002;4.688;2024-02-23T04:09:30;5.60;94.00
47546;DHT22;50104;52.002;4.688;2024-02-23T04:14:31;5.60;94.10
47546;DHT22;50104;52.002;4.688;2024-02-23T04:19:32;5.50;94.20
47546;DHT22;50104;52.002;4.688;2024-02-23T04:24:32;5.50;94.20
47546;DHT22;50104;52.002;4.688;2024-02-23T04:29:34;5.50;94.30
47546;DHT22;50104;52.002;4.688;2024-02-23T04:34:35;5.50;94.40
47546;DHT22;50104;52.002;4.688;2024-02-23T04:39:35;5.50;94.60
47546;DHT22;50104;52.002;4.688;2024-02-23T04:44:38;5.50;94.60
47546;DHT22;50104;52.002;4.688;2024-02-23T04:49:41;5.50;94.80
47546;DHT22;50104;52.002;4.688;2024-02-23T04:54:43;5.50;94.80
47546;DHT22;50104;52.002;4.688;2024-02-23T04:59:43;5.50;94.90
47546;DHT22;50104;52.002;4.688;2024-02-23T05:04:44;5.50;94.90
47546;DHT22;50104;52.002;4.688;2024-02-23T05:09:45;5.50;94.70
47546;DHT22;50104;52.002;4.688;2024-02-23T05:14:46;5.50;94.80
47546;DHT22;50104;52.002;4.688;2024-02-23T05:19:47;5.50;95.00
47546;DHT22;50104;52.002;4.688;2024-02-23T05:24:47;5.60;95.10
47546;DHT22;50104;52.002;4.688;2024-02-23T05:29:48;5.60;95.20
47546;DHT22;50104;52.002;4.688;2024-02-23T05:34:49;5.60;95.30
47546;DHT22;50104;52.002;4.688;2024-02-23T05:39:53;5.70;95.20
47546;DHT22;50104;52.002;4.688;2024-02-23T05:44:54;5.70;95.20
47546;DHT22;50104;52.002;4.688;2024-02-23T05:49:55;5.80;95.10
47546;DHT22;50104;52.002;4.688;2024-02-23T05:54:56;5.80;95.00
47546;DHT22;50104;52.002;4.688;2024-02-23T05:59:56;5.80;94.90
47546;DHT22;50104;52.002;4.688;2024-02-23T06:04:57;5.80;94.80
47546;DHT22;50104;52.002;4.688;2024-02-23T06:09:58;5.80;94.60
47546;DHT22;50104;52.002;4.688;2024-02-23T06:14:59;5.80;94.70
47546;DHT22;50104;52.002;4.688;2024-02-23T06:20:00;5.90;94.60
47546;DHT22;50104;52.002;4.688;2024-02-23T06:25:01;5.90;94.60
47546;DHT22;50104;52.002;4.688;2024-02-23T06:30:03;5.90;94.30
47546;DHT22;50104;52.002;4.688;2024-02-23T06:35:05;5.90;94.20
47546;DHT22;50104;52.002;4.688;2024-02-23T06:40:07;5.90;94.10
47546;DHT22;50104;52.002;4.688;2024-02-23T06:45:08;5.90;94.10
47546;DHT22;50104;52.002;4.688;2024-02-23T06:50:10;5.90;94.10
47546;DHT22;50104;52.002;4.688;2024-02-23T06:55:10;5.90;93.90
47546;DHT22;50104;52.002;4.688;2024-02-23T07:00:12;5.90;93.80
47546;DHT22;50104;52.002;4.688;2024-02-23T07:05:13;5.90;93.70
47546;DHT22;50104;52.002;4.688;2024-02-23T07:10:14;5.90;93.80
47546;DHT22;50104;52.002;4.688;2024-02-23T07:15:19;5.90;93.70
47546;DHT22;50104;52.002;4.688;2024-02-23T07:20:20;6.00;93.70
47546;DHT22;50104;52.002;4.688;2024-02-23T07:25:21;6.00;93.60
47546;DHT22;50104;52.002;4.688;2024-02-23T07:30:22;6.00;93.60
47546;DHT22;50104;52.002;4.688;2024-02-23T07:35:23;6.00;93.60
47546;DHT22;50104;52.002;4.688;2024-02-23T07:40:24;6.10;93.60
47546;DHT22;50104;52.002;4.688;2024-02-23T07:45:24;6.10;93.40
47546;DHT22;50104;52.002;4.688;2024-02-23T07:50:26;6.00;93.40
47546;DHT22;50104;52.002;4.688;2024-02-23T07:55:27;6.10;93.40
47546;DHT22;50104;52.002;4.688;2024-02-23T08:00:28;6.00;93.50
47546;DHT22;50104;52.002;4.688;2024-02-23T08:05:29;6.00;93.50
47546;DHT22;50104;52.002;4.688;2024-02-23T08:10:30;6.00;93.70
47546;DHT22;50104;52.002;4.688;2024-02-23T08:15:30;6.00;93.80
47546;DHT22;50104;52.002;4.688;2024-02-23T08:20:31;6.00;93.90
47546;DHT22;50104;52.002;4.688;2024-02-23T08:25:32;6.00;94.10
47546;DHT22;50104;52.002;4.688;2024-02-23T08:30:33;5.90;94.20
47546;DHT22;50104;52.002;4.688;2024-02-23T08:35:34;5.90;94.30
47546;DHT22;50104;52.002;4.688;2024-02-23T08:40:35;5.90;94.40
47546;DHT22;50104;52.002;4.688;2024-02-23T08:45:36;5.90;94.60
47546;DHT22;50104;52.002;4.688;2024-02-23T08:50:37;6.00;94.60
47546;DHT22;50104;52.002;4.688;2024-02-23T08:55:38;6.00;94.70
47546;DHT22;50104;52.002;4.688;2024-02-23T09:00:39;6.00;94.70
47546;DHT22;50104;52.002;4.688;2024-02-23T09:05:40;6.00;95.00
47546;DHT22;50104;52.002;4.688;2024-02-23T09:10:41;6.00;95.20
47546;DHT22;50104;52.002;4.688;2024-02-23T09:15:42;6.00;95.40
47546;DHT22;50104;52.002;4.688;2024-02-23T09:20:43;6.10;95.50
47546;DHT22;50104;52.002;4.688;2024-02-23T09:25:44;6.10;95.70
47546;DHT22;50104;52.002;4.688;2024-02-23T09:30:45;6.20;95.80
47546;DHT22;50104;52.002;4.688;2024-02-23T09:35:47;6.20;95.90
47546;DHT22;50104;52.002;4.688;2024-02-23T09:40:48;6.30;95.80
47546;DHT22;50104;52.002;4.688;2024-02-23T09:45:53;6.40;95.50
47546;DHT22;50104;52.002;4.688;2024-02-23T09:50:55;6.40;95.50
47546;DHT22;50104;52.002;4.688;2024-02-23T09:55:59;6.50;95.40
47546;DHT22;50104;52.002;4.688;2024-02-23T10:01:05;6.50;95.40
47546;DHT22;50104;52.002;4.688;2024-02-23T10:06:06;6.60;95.20
47546;DHT22;50104;52.002;4.688;2024-02-23T10:11:07;6.60;95.10
47546;DHT22;50104;52.002;4.688;2024-02-23T10:16:08;6.70;95.00
47546;DHT22;50104;52.002;4.688;2024-02-23T10:21:09;6.70;94.90
47546;DHT22;50104;52.002;4.688;2024-02-23T10:26:10;6.80;94.90
47546;DHT22;50104;52.002;4.688;2024-02-23T10:31:11;6.80;94.90
47546;DHT22;50104;52.002;4.688;2024-02-23T10:36:15;6.90;95.10
47546;DHT22;50104;52.002;4.688;2024-02-23T10:41:17;7.00;95.20
47546;DHT22;50104;52.002;4.688;2024-02-23T10:46:19;7.20;95.20
47546;DHT22;50104;52.002;4.688;2024-02-23T10:51:21;7.30;95.00
47546;DHT22;50104;52.002;4.688;2024-02-23T10:56:23;7.50;94.70
47546;DHT22;50104;52.002;4.688;2024-02-23T11:01:25;7.70;94.10
47546;DHT22;50104;52.002;4.688;2024-02-23T11:06:29;7.80;93.50
47546;DHT22;50104;52.002;4.688;2024-02-23T11:11:32;8.00;93.40
47546;DHT22;50104;52.002;4.688;2024-02-23T11:16:33;8.10;92.50
47546;DHT22;50104;52.002;4.688;2024-02-23T11:21:38;8.20;91.30
47546;DHT22;50104;52.002;4.688;2024-02-23T11:26:39;8.40;90.90
47546;DHT22;50104;52.002;4.688;2024-02-23T11:31:45;8.40;90.30
47546;DHT22;50104;52.002;4.688;2024-02-23T11:36:51;8.50;90.00
47546;DHT22;50104;52.002;4.688;2024-02-23T11:41:53;8.60;89.40
47546;DHT22;50104;52.002;4.688;2024-02-23T11:46:54;8.60;88.90
47546;DHT22;50104;52.002;4.688;2024-02-23T11:51:56;8.60;88.70
47546;DHT22;50104;52.002;4.688;2024-02-23T11:56:56;8.70;88.50
47546;DHT22;50104;52.002;4.688;2024-02-23T12:01:57;8.80;89.00
47546;DHT22;50104;52.002;4.688;2024-02-23T12:06:59;8.80;88.40
47546;DHT22;50104;52.002;4.688;2024-02-23T12:12:01;8.90;89.30
47546;DHT22;50104;52.002;4.688;2024-02-23T12:17:02;9.10;88.60
47546;DHT22;50104;52.002;4.688;2024-02-23T12:22:07;9.20;88.50
47546;DHT22;50104;52.002;4.688;2024-02-23T12:27:08;9.30;88.60
47546;DHT22;50104;52.002;4.688;2024-02-23T12:32:09;9.50;88.40
47546;DHT22;50104;52.002;4.688;2024-02-23T12:37:10;9.60;87.40
47546;DHT22;50104;52.002;4.688;2024-02-23T12:42:11;9.70;87.90
47546;DHT22;50104;52.002;4.688;2024-02-23T12:47:12;9.90;87.70
47546;DHT22;50104;52.002;4.688;2024-02-23T12:52:13;10.10;86.00
47546;DHT22;50104;52.002;4.688;2024-02-23T12:57:14;10.20;85.70
47546;DHT22;50104;52.002;4.688;2024-02-23T13:02:15;10.40;85.00
47546;DHT22;50104;52.002;4.688;2024-02-23T13:07:16;10.50;84.20
47546;DHT22;50104;52.002;4.688;2024-02-23T13:12:19;10.60;84.80
47546;DHT22;50104;52.002;4.688;2024-02-23T13:17:20;10.60;83.40
47546;DHT22;50104;52.002;4.688;2024-02-23T13:22:21;10.70;83.70
47546;DHT22;50104;52.002;4.688;2024-02-23T13:27:22;10.70;83.00
47546;DHT22;50104;52.002;4.688;2024-02-23T13:32:23;10.70;82.20
47546;DHT22;50104;52.002;4.688;2024-02-23T13:37:24;10.80;83.10
47546;DHT22;50104;52.002;4.688;2024-02-23T13:42:26;10.80;83.30
47546;DHT22;50104;52.002;4.688;2024-02-23T13:47:27;10.80;82.30
47546;DHT22;50104;52.002;4.688;2024-02-23T13:52:29;10.70;81.80
47546;DHT22;50104;52.002;4.688;2024-02-23T13:57:30;10.60;81.50
47546;DHT22;50104;52.002;4.688;2024-02-23T14:02:31;10.60;81.80
47546;DHT22;50104;52.002;4.688;2024-02-23T14:07:33;10.50;81.70
47546;DHT22;50104;52.002;4.688;2024-02-23T14:12:34;10.40;81.70
47546;DHT22;50104;52.002;4.688;2024-02-23T14:17:35;10.40;82.30
47546;DHT22;50104;52.002;4.688;2024-02-23T14:22:36;10.30;82.20
47546;DHT22;50104;52.002;4.688;2024-02-23T14:27:36;10.30;82.80
47546;DHT22;50104;52.002;4.688;2024-02-23T14:32:37;10.20;82.20
47546;DHT22;50104;52.002;4.688;2024-02-23T14:37:38;10.10;81.80
47546;DHT22;50104;52.002;4.688;2024-02-23T14:42:39;10.10;82.30
47546;DHT22;50104;52.002;4.688;2024-02-23T14:47:41;10.00;82.50
47546;DHT22;50104;52.002;4.688;2024-02-23T14:52:44;9.90;82.50
47546;DHT22;50104;52.002;4.688;2024-02-23T14:57:44;9.80;82.20
47546;DHT22;50104;52.002;4.688;2024-02-23T15:02:45;9.80;82.20
47546;DHT22;50104;52.002;4.688;2024-02-23T15:07:46;9.70;82.20
47546;DHT22;50104;52.002;4.688;2024-02-23T15:12:47;9.70;82.20
47546;DHT22;50104;52.002;4.688;2024-02-23T15:17:48;9.70;82.10
47546;DHT22;50104;52.002;4.688;2024-02-23T15:22:50;9.80;82.30
47546;DHT22;50104;52.002;4.688;2024-02-23T15:27:51;9.80;82.80
47546;DHT22;50104;52.002;4.688;2024-02-23T15:32:53;9.80;83.40
47546;DHT22;50104;52.002;4.688;2024-02-23T15:37:54;9.90;82.50
47546;DHT22;50104;52.002;4.688;2024-02-23T15:42:55;9.80;83.10
47546;DHT22;50104;52.002;4.688;2024-02-23T15:47:56;9.80;83.20
47546;DHT22;50104;52.002;4.688;2024-02-23T15:52:57;9.80;83.50
47546;DHT22;50104;52.002;4.688;2024-02-23T15:57:58;9.80;83.70
47546;DHT22;50104;52.002;4.688;2024-02-23T16:03:00;9.70;83.50
47546;DHT22;50104;52.002;4.688;2024-02-23T16:08:01;9.60;83.80
47546;DHT22;50104;52.002;4.688;2024-02-23T16:13:04;9.60;83.80
47546;DHT22;50104;52.002;4.688;2024-02-23T16:18:05;9.50;84.20
47546;DHT22;50104;52.002;4.688;2024-02-23T16:23:07;9.50;83.60
47546;DHT22;50104;52.002;4.688;2024-02-23T16:28:09;9.40;83.60
47546;DHT22;50104;52.002;4.688;2024-02-23T16:33:10;9.30;84.50
47546;DHT22;50104;52.002;4.688;2024-02-23T16:38:11;9.20;84.60
47546;DHT22;50104;52.002;4.688;2024-02-23T16:43:12;9.10;85.20
47546;DHT22;50104;52.002;4.688;2024-02-23T16:48:13;9.00;85.40
47546;DHT22;50104;52.002;4.688;2024-02-23T16:53:16;9.00;85.10
47546;DHT22;50104;52.002;4.688;2024-02-23T16:58:17;8.90;85.70
47546;DHT22;50104;52.002;4.688;2024-02-23T17:03:22;8.80;86.00
47546;DHT22;50104;52.002;4.688;2024-02-23T17:08:23;8.70;86.50
47546;DHT22;50104;52.002;4.688;2024-02-23T17:13:24;8.70;86.70
47546;DHT22;50104;52.002;4.688;2024-02-23T17:18:26;8.60;87.20
47546;DHT22;50104;52.002;4.688;2024-02-23T17:23:27;8.50;87.30
47546;DHT22;50104;52.002;4.688;2024-02-23T17:28:28;8.50;87.50
47546;DHT22;50104;52.002;4.688;2024-02-23T17:33:29;8.40;87.60
47546;DHT22;50104;52.002;4.688;2024-02-23T17:38:30;8.30;87.60
47546;DHT22;50104;52.002;4.688;2024-02-23T17:43:31;8.20;87.50
47546;DHT22;50104;52.002;4.688;2024-02-23T17:48:32;8.10;87.60
47546;DHT22;50104;52.002;4.688;2024-02-23T17:53:33;8.00;87.60
47546;DHT22;50104;52.002;4.688;2024-02-23T17:58:33;7.90;87.60
47546;DHT22;50104;52.002;4.688;2024-02-23T18:03:36;7.80;87.70
47546;DHT22;50104;52.002;4.688;2024-02-23T18:08:37;7.70;87.90
47546;DHT22;50104;52.002;4.688;2024-02-23T18:13:38;7.60;88.00
47546;DHT22;50104;52.002;4.688;2024-02-23T18:18:40;7.50;88.20
47546;DHT22;50104;52.002;4.688;2024-02-23T18:23:41;7.40;88.30
47546;DHT22;50104;52.002;4.688;2024-02-23T18:28:41;7.30;88.50
47546;DHT22;50104;52.002;4.688;2024-02-23T18:33:42;7.20;88.60
47546;DHT22;50104;52.002;4.688;2024-02-23T18:38:44;7.20;88.70
47546;DHT22;50104;52.002;4.688;2024-02-23T18:43:45;7.10;88.90
47546;DHT22;50104;52.002;4.688;2024-02-23T18:48:47;7.00;89.10
47546;DHT22;50104;52.002;4.688;2024-02-23T18:53:50;7.00;89.40
47546;DHT22;50104;52.002;4.688;2024-02-23T18:58:51;6.90;89.60
47546;DHT22;50104;52.002;4.688;2024-02-23T19:03:52;6.90;89.80
47546;DHT22;50104;52.002;4.688;2024-02-23T19:08:53;6.90;90.10
47546;DHT22;50104;52.002;4.688;2024-02-23T19:13:54;6.90;90.40
47546;DHT22;50104;52.002;4.688;2024-02-23T19:18:56;6.80;90.80
47546;DHT22;50104;52.002;4.688;2024-02-23T19:23:57;6.90;90.80
47546;DHT22;50104;52.002;4.688;2024-02-23T19:28:58;6.90;90.90
47546;DHT22;50104;52.002;4.688;2024-02-23T19:33:59;6.90;90.90
47546;DHT22;50104;52.002;4.688;2024-02-23T19:39:02;6.90;90.80
47546;DHT22;50104;52.002;4.688;2024-02-23T19:44:07;6.90;90.80
47546;DHT22;50104;52.002;4.688;2024-02-23T19:49:08;6.90;90.70
47546;DHT22;50104;52.002;4.688;2024-02-23T19:54:09;6.90;90.70
47546;DHT22;50104;52.002;4.688;2024-02-23T19:59:10;6.80;90.70
47546;DHT22;50104;52.002;4.688;2024-02-23T20:04:12;6.80;90.70
47546;DHT22;50104;52.002;4.688;2024-02-23T20:09:14;6.80;90.60
47546;DHT22;50104;52.002;4.688;2024-02-23T20:14:14;6.70;90.80
47546;DHT22;50104;52.002;4.688;2024-02-23T20:19:16;6.70;90.80
47546;DHT22;50104;52.002;4.688;2024-02-23T20:24:16;6.70;90.90
47546;DHT22;50104;52.002;4.688;2024-02-23T20:29:18;6.70;91.00
47546;DHT22;50104;52.002;4.688;2024-02-23T20:34:20;6.70;91.10
47546;DHT22;50104;52.002;4.688;2024-02-23T20:39:21;6.70;91.20
47546;DHT22;50104;52.002;4.688;2024-02-23T20:44:27;6.70;91.30
47546;DHT22;50104;52.002;4.688;2024-02-23T20:49:28;6.60;91.20
47546;DHT22;50104;52.002;4.688;2024-02-23T20:54:32;6.60;91.30
47546;DHT22;50104;52.002;4.688;2024-02-23T20:59:33;6.60;91.40
47546;DHT22;50104;52.002;4.688;2024-02-23T21:04:34;6.60;91.50
47546;DHT22;50104;52.002;4.688;2024-02-23T21:09:44;6.60;91.60
47546;DHT22;50104;52.002;4.688;2024-02-23T21:14:45;6.60;91.60
47546;DHT22;50104;52.002;4.688;2024-02-23T21:19:46;6.60;91.60
47546;DHT22;50104;52.002;4.688;2024-02-23T21:24:47;6.60;91.50
47546;DHT22;50104;52.002;4.688;2024-02-23T21:29:48;6.70;91.60
47546;DHT22;50104;52.002;4.688;2024-02-23T21:34:48;6.60;91.60
47546;DHT22;50104;52.002;4.688;2024-02-23T21:39:49;6.60;91.60
47546;DHT22;50104;52.002;4.688;2024-02-23T21:44:52;6.60;91.60
47546;DHT22;50104;52.002;4.688;2024-02-23T21:49:53;6.60;91.60
47546;DHT22;50104;52.002;4.688;2024-02-23T21:54:54;6.60;91.60
47546;DHT22;50104;52.002;4.688;2024-02-23T21:59:55;6.60;91.60
